createdAt,value
2018-05-06T00:02:02.419Z,9.00
2018-05-06T00:05:06.745Z,9.00
2018-05-06T00:08:11.310Z,9.00
2018-05-06T00:11:16.519Z,8.90
2018-05-06T00:14:19.847Z,8.80
2018-05-06T00:17:23.271Z,8.70
2018-05-06T00:20:26.578Z,8.60
2018-05-06T00:23:31.052Z,8.60
2018-05-06T00:26:35.637Z,8.60
2018-05-06T00:29:39.017Z,8.50
2018-05-06T00:32:42.325Z,8.30
2018-05-06T00:35:45.745Z,8.20
2018-05-06T00:38:49.057Z,8.30
2018-05-06T00:41:52.592Z,8.30
2018-05-06T00:44:56.967Z,8.20
2018-05-06T00:48:00.407Z,8.20
2018-05-06T00:51:04.112Z,8.20
2018-05-06T00:54:19.557Z,8.10
2018-05-06T00:57:23.141Z,8.10
2018-05-06T01:00:27.492Z,8.00
2018-05-06T01:03:30.783Z,7.90
2018-05-06T01:06:35.214Z,7.70
2018-05-06T01:09:38.577Z,7.70
2018-05-06T01:12:42.025Z,8.00
2018-05-06T01:15:46.921Z,7.90
2018-05-06T01:18:50.372Z,7.80
2018-05-06T01:21:53.670Z,7.70
2018-05-06T01:24:57.996Z,7.40
2018-05-06T01:28:02.251Z,7.20
2018-05-06T01:31:06.446Z,6.90
2018-05-06T01:34:10.565Z,6.90
2018-05-06T01:37:13.922Z,6.90
2018-05-06T01:40:18.463Z,6.90
2018-05-06T01:43:21.914Z,6.90
2018-05-06T01:46:26.007Z,6.90
2018-05-06T01:49:30.221Z,6.70
2018-05-06T01:52:38.395Z,6.40
2018-05-06T01:55:41.874Z,6.40
2018-05-06T01:58:45.947Z,6.30
2018-05-06T02:01:49.332Z,6.20
2018-05-06T02:04:55.253Z,6.60
2018-05-06T02:07:59.809Z,6.60
2018-05-06T02:11:03.186Z,6.60
2018-05-06T02:14:06.529Z,6.50
2018-05-06T02:17:12.138Z,6.60
2018-05-06T02:20:17.789Z,6.90
2018-05-06T02:23:22.204Z,6.50
2018-05-06T02:26:26.581Z,6.20
2018-05-06T02:29:31.823Z,6.00
2018-05-06T02:32:36.009Z,6.00
2018-05-06T02:35:40.430Z,6.20
2018-05-06T02:38:43.737Z,6.10
2018-05-06T02:41:49.069Z,5.70
2018-05-06T02:44:53.213Z,5.60
2018-05-06T02:47:58.747Z,5.60
2018-05-06T02:51:02.119Z,5.70
2018-05-06T02:54:06.427Z,5.60
2018-05-06T02:57:10.767Z,5.50
2018-05-06T03:00:14.251Z,5.40
2018-05-06T03:03:17.652Z,5.40
2018-05-06T03:06:21.933Z,5.20
2018-05-06T03:09:25.414Z,5.20
2018-05-06T03:12:29.165Z,5.40
2018-05-06T03:15:38.354Z,5.60
2018-05-06T03:18:46.974Z,5.60
2018-05-06T03:21:51.200Z,5.40
2018-05-06T03:24:54.480Z,5.40
2018-05-06T03:27:59.485Z,5.20
2018-05-06T03:31:03.969Z,5.30
2018-05-06T03:34:08.672Z,5.30
2018-05-06T03:37:11.999Z,5.40
2018-05-06T03:40:15.223Z,5.50
2018-05-06T03:43:19.361Z,5.20
2018-05-06T03:46:22.780Z,5.20
2018-05-06T03:49:27.820Z,5.10
2018-05-06T03:52:31.824Z,4.90
2018-05-06T03:55:35.415Z,4.90
2018-05-06T03:58:51.360Z,4.90
2018-05-06T04:05:41.507Z,4.90
2018-05-06T04:08:44.967Z,4.90
2018-05-06T04:11:48.209Z,4.80
2018-05-06T04:14:51.386Z,4.70
2018-05-06T04:17:55.466Z,4.70
2018-05-06T04:21:03.429Z,4.80
2018-05-06T04:24:08.169Z,5.10
2018-05-06T04:27:13.140Z,5.10
2018-05-06T04:30:17.366Z,5.00
2018-05-06T04:33:20.796Z,5.40
2018-05-06T04:36:24.290Z,5.70
2018-05-06T04:39:29.985Z,5.90
2018-05-06T04:45:42.801Z,5.40
2018-05-06T04:48:46.080Z,5.40
2018-05-06T04:51:49.380Z,5.30
2018-05-06T04:54:52.627Z,5.50
2018-05-06T04:58:01.778Z,6.00
2018-05-06T05:01:05.233Z,5.90
2018-05-06T05:04:16.275Z,5.80
2018-05-06T05:07:20.909Z,6.00
2018-05-06T05:10:24.119Z,6.20
2018-05-06T05:13:40.321Z,6.40
2018-05-06T05:16:44.620Z,6.90
2018-05-06T05:19:48.316Z,6.90
2018-05-06T05:22:51.783Z,6.90
2018-05-06T05:25:55.875Z,6.90
2018-05-06T05:29:04.431Z,7.30
2018-05-06T05:32:07.809Z,7.30
2018-05-06T05:35:11.089Z,7.40
2018-05-06T05:38:16.921Z,7.60
2018-05-06T05:41:21.351Z,7.70
2018-05-06T05:44:26.285Z,8.00
2018-05-06T05:47:30.973Z,8.00
2018-05-06T05:50:34.454Z,8.10
2018-05-06T05:53:37.845Z,8.20
2018-05-06T05:56:41.646Z,8.40
2018-05-06T05:59:48.318Z,8.50
2018-05-06T06:02:52.401Z,8.90
2018-05-06T06:05:55.649Z,8.90
2018-05-06T06:08:58.860Z,9.20
2018-05-06T06:12:02.099Z,9.40
2018-05-06T06:15:06.379Z,9.80
2018-05-06T06:18:11.009Z,10.10
2018-05-06T06:21:17.471Z,11.00
2018-05-06T06:24:20.809Z,11.00
2018-05-06T06:27:24.099Z,13.40
2018-05-06T06:30:28.288Z,18.90
2018-05-06T06:33:33.440Z,18.90
2018-05-06T06:36:39.950Z,21.20
2018-05-06T06:39:43.394Z,22.90
2018-05-06T06:42:53.233Z,23.80
2018-05-06T06:45:57.063Z,25.40
2018-05-06T06:49:01.105Z,24.80
2018-05-06T06:52:08.291Z,25.30
2018-05-06T06:55:12.862Z,24.60
2018-05-06T06:58:17.923Z,25.40
2018-05-06T07:01:23.071Z,25.40
2018-05-06T07:04:30.522Z,25.50
2018-05-06T07:07:35.383Z,23.50
2018-05-06T07:10:42.517Z,24.80
2018-05-06T07:13:46.953Z,24.80
2018-05-06T07:16:50.443Z,25.10
2018-05-06T07:19:53.839Z,26.10
2018-05-06T07:23:02.386Z,25.60
2018-05-06T07:26:07.614Z,25.50
2018-05-06T07:29:19.288Z,27.30
2018-05-06T07:32:23.452Z,27.90
2018-05-06T07:35:27.702Z,27.90
2018-05-06T07:38:33.069Z,27.70
2018-05-06T07:41:38.920Z,27.30
2018-05-06T07:44:43.006Z,26.90
2018-05-06T07:47:52.136Z,26.10
2018-05-06T07:50:57.883Z,27.30
2018-05-06T07:54:01.272Z,27.30
2018-05-06T07:57:05.258Z,28.10
2018-05-06T08:00:17.516Z,28.10
2018-05-06T08:03:33.548Z,29.00
2018-05-06T08:06:50.016Z,28.40
2018-05-06T08:13:07.483Z,28.70
2018-05-06T08:16:14.285Z,28.20
2018-05-06T08:19:21.922Z,25.30
2018-05-06T08:22:26.708Z,25.50
2018-05-06T08:25:30.106Z,25.50
2018-05-06T08:28:36.334Z,25.60
2018-05-06T08:31:41.308Z,25.40
2018-05-06T08:34:51.124Z,26.60
2018-05-06T08:37:55.229Z,26.10
2018-05-06T08:41:01.592Z,26.10
2018-05-06T08:44:07.378Z,26.10
2018-05-06T08:47:11.843Z,25.90
2018-05-06T08:50:20.462Z,25.80
2018-05-06T08:53:24.692Z,25.50
2018-05-06T08:56:29.257Z,25.50
2018-05-06T08:59:39.099Z,25.10
2018-05-06T09:02:44.182Z,25.00
2018-05-06T09:05:52.257Z,25.80
2018-05-06T09:08:55.538Z,25.70
2018-05-06T09:12:00.801Z,25.80
2018-05-06T09:15:05.240Z,25.80
2018-05-06T09:18:10.053Z,25.80
2018-05-06T09:21:13.542Z,25.70
2018-05-06T09:24:16.785Z,25.30
2018-05-06T09:27:20.030Z,25.50
2018-05-06T09:30:23.396Z,25.30
2018-05-06T09:33:26.588Z,25.10
2018-05-06T09:36:32.118Z,25.50
2018-05-06T09:39:37.327Z,25.20
2018-05-06T09:42:40.582Z,25.30
2018-05-06T09:45:49.197Z,23.90
2018-05-06T09:48:54.442Z,23.80
2018-05-06T09:52:03.002Z,24.30
2018-05-06T09:55:10.943Z,24.60
2018-05-06T09:58:18.869Z,25.10
2018-05-06T10:01:22.871Z,24.90
2018-05-06T10:04:26.372Z,24.90
2018-05-06T10:07:30.543Z,24.60
2018-05-06T10:10:37.320Z,23.90
2018-05-06T10:13:42.302Z,24.40
2018-05-06T10:16:46.333Z,24.10
2018-05-06T10:19:50.310Z,24.60
2018-05-06T10:22:53.666Z,24.60
2018-05-06T10:26:02.027Z,24.50
2018-05-06T10:29:06.119Z,25.40
2018-05-06T10:32:12.238Z,25.40
2018-05-06T10:35:16.196Z,24.40
2018-05-06T10:38:21.746Z,24.30
2018-05-06T10:41:25.744Z,24.30
2018-05-06T10:44:29.254Z,24.30
2018-05-06T10:47:34.429Z,23.50
2018-05-06T10:50:39.784Z,23.50
2018-05-06T10:53:45.127Z,23.90
2018-05-06T10:56:49.095Z,23.80
2018-05-06T10:59:57.361Z,23.80
2018-05-06T11:03:00.740Z,23.40
2018-05-06T11:06:03.957Z,22.90
2018-05-06T11:09:07.133Z,23.50
2018-05-06T11:12:12.506Z,23.60
2018-05-06T11:15:17.650Z,23.30
2018-05-06T11:18:20.977Z,23.30
2018-05-06T11:21:24.359Z,23.90
2018-05-06T11:28:22.102Z,23.10
2018-05-06T11:31:25.788Z,23.20
2018-05-06T11:34:29.249Z,22.70
2018-05-06T11:37:33.436Z,22.10
2018-05-06T11:40:37.215Z,22.10
2018-05-06T11:43:40.660Z,21.40
2018-05-06T11:46:43.963Z,21.10
2018-05-06T11:49:48.645Z,20.30
2018-05-06T11:52:52.162Z,20.30
2018-05-06T11:55:55.731Z,20.20
2018-05-06T11:58:58.920Z,20.40
2018-05-06T12:02:04.525Z,20.40
2018-05-06T12:05:10.187Z,20.00
2018-05-06T12:08:14.853Z,20.10
2018-05-06T12:11:18.227Z,20.00
2018-05-06T12:14:21.427Z,20.10
2018-05-06T12:17:25.630Z,20.10
2018-05-06T12:20:30.363Z,20.10
2018-05-06T12:23:34.216Z,20.10
2018-05-06T12:26:37.475Z,20.10
2018-05-06T12:29:41.865Z,20.10
2018-05-06T12:32:45.084Z,20.20
2018-05-06T12:35:49.128Z,20.20
2018-05-06T12:38:52.462Z,20.20
2018-05-06T12:45:14.344Z,20.30
2018-05-06T12:48:18.439Z,20.30
2018-05-06T12:51:21.856Z,20.30
2018-05-06T12:54:28.457Z,20.30
2018-05-06T12:57:38.674Z,20.10
2018-05-06T13:00:45.007Z,20.10
2018-05-06T13:07:07.292Z,20.20
2018-05-06T13:10:11.532Z,20.10
2018-05-06T13:16:48.318Z,20.30
2018-05-06T13:19:51.636Z,20.10
2018-05-06T13:26:12.800Z,20.20
2018-05-06T13:29:17.654Z,20.20
2018-05-06T13:32:20.988Z,20.30
2018-05-06T13:35:27.673Z,20.30
2018-05-06T13:38:30.978Z,20.30
2018-05-06T13:41:34.159Z,20.20
2018-05-06T13:44:40.521Z,20.20
2018-05-06T13:47:43.896Z,20.30
2018-05-06T13:50:47.268Z,20.30
2018-05-06T13:53:50.593Z,20.30
2018-05-06T13:56:54.010Z,20.40
2018-05-06T13:59:58.658Z,20.20
2018-05-06T14:03:04.120Z,20.20
2018-05-06T14:06:08.124Z,20.30
2018-05-06T14:09:12.140Z,20.60
2018-05-06T14:12:16.118Z,20.50
2018-05-06T14:15:20.216Z,20.40
2018-05-06T14:18:23.400Z,20.40
2018-05-06T14:21:27.430Z,20.50
2018-05-06T14:24:33.281Z,20.50
2018-05-06T14:27:37.021Z,20.50
2018-05-06T14:30:41.617Z,20.60
2018-05-06T14:33:44.881Z,20.50
2018-05-06T14:36:48.107Z,20.50
2018-05-06T14:39:51.606Z,20.60
2018-05-06T14:42:55.006Z,20.60
2018-05-06T14:45:59.192Z,20.60
2018-05-06T14:49:03.524Z,20.60
2018-05-06T14:52:08.001Z,20.60
2018-05-06T14:55:11.818Z,20.60
2018-05-06T14:58:15.067Z,20.60
2018-05-06T15:01:18.296Z,20.60
2018-05-06T15:04:21.646Z,20.60
2018-05-06T15:07:25.923Z,20.60
2018-05-06T15:10:33.398Z,20.60
2018-05-06T15:13:37.621Z,20.70
2018-05-06T15:16:41.857Z,20.50
2018-05-06T15:19:52.252Z,20.60
2018-05-06T15:26:23.177Z,20.60
2018-05-06T15:29:29.701Z,20.70
2018-05-06T15:32:36.878Z,20.60
2018-05-06T15:35:42.537Z,20.80
2018-05-06T15:38:46.136Z,20.80
2018-05-06T15:41:49.747Z,20.50
2018-05-06T15:44:53.150Z,20.50
2018-05-06T15:48:06.385Z,20.50
2018-05-06T15:51:10.561Z,20.50
2018-05-06T15:54:14.101Z,20.50
2018-05-06T15:57:17.554Z,20.60
2018-05-06T16:00:21.066Z,20.60
2018-05-06T16:03:39.855Z,20.50
2018-05-06T16:06:43.106Z,20.50
2018-05-06T16:09:46.357Z,20.50
2018-05-06T16:12:50.278Z,20.40
2018-05-06T16:15:53.510Z,20.40
2018-05-06T16:18:57.900Z,20.30
2018-05-06T16:22:01.818Z,20.40
2018-05-06T16:25:04.995Z,20.40
2018-05-06T16:28:08.212Z,20.30
2018-05-06T16:31:12.517Z,20.30
2018-05-06T16:34:15.755Z,20.30
2018-05-06T16:37:18.907Z,20.30
2018-05-06T16:40:22.164Z,20.20
2018-05-06T16:43:26.455Z,20.00
2018-05-06T16:46:32.709Z,20.00
2018-05-06T16:49:35.953Z,20.00
2018-05-06T16:52:39.334Z,19.90
2018-05-06T16:55:43.624Z,19.90
2018-05-06T16:58:46.871Z,19.90
2018-05-06T17:01:51.018Z,19.80
2018-05-06T17:04:54.219Z,19.80
2018-05-06T17:08:00.739Z,19.80
2018-05-06T17:11:04.952Z,19.70
2018-05-06T17:14:10.259Z,19.70
2018-05-06T17:17:14.431Z,19.70
2018-05-06T17:20:17.683Z,19.70
2018-05-06T17:23:20.948Z,19.50
2018-05-06T17:26:24.182Z,19.40
2018-05-06T17:29:27.545Z,19.50
2018-05-06T17:32:33.445Z,19.50
2018-05-06T17:35:37.216Z,19.40
2018-05-06T17:38:40.522Z,19.30
2018-05-06T17:41:43.838Z,19.30
2018-05-06T17:44:47.557Z,19.30
2018-05-06T17:47:50.793Z,19.30
2018-05-06T17:50:54.920Z,19.20
2018-05-06T17:53:59.270Z,19.10
2018-05-06T17:57:03.728Z,19.00
2018-05-06T18:00:09.205Z,18.90
2018-05-06T18:03:14.964Z,18.90
2018-05-06T18:06:18.187Z,18.80
2018-05-06T18:09:21.487Z,18.80
2018-05-06T18:12:24.693Z,18.70
2018-05-06T18:15:30.226Z,18.60
2018-05-06T18:18:33.654Z,18.50
2018-05-06T18:21:41.018Z,18.40
2018-05-06T18:24:48.001Z,18.40
2018-05-06T18:27:51.171Z,18.20
2018-05-06T18:30:55.339Z,18.10
2018-05-06T18:33:59.425Z,18.00
2018-05-06T18:37:04.340Z,18.00
2018-05-06T18:40:08.812Z,17.80
2018-05-06T18:43:12.791Z,17.70
2018-05-06T18:46:16.910Z,17.50
2018-05-06T18:49:20.364Z,17.50
2018-05-06T18:52:23.707Z,17.40
2018-05-06T18:55:30.099Z,17.30
2018-05-06T18:58:34.221Z,17.10
2018-05-06T19:01:38.065Z,17.10
2018-05-06T19:04:42.068Z,16.90
2018-05-06T19:07:45.406Z,16.80
2018-05-06T19:10:48.834Z,16.80
2018-05-06T19:13:52.035Z,16.60
2018-05-06T19:16:55.257Z,16.30
2018-05-06T19:20:00.727Z,16.30
2018-05-06T19:23:06.134Z,16.20
2018-05-06T19:26:14.245Z,16.20
2018-05-06T19:29:18.939Z,16.20
2018-05-06T19:32:22.358Z,16.10
2018-05-06T19:35:25.513Z,16.00
2018-05-06T19:38:29.323Z,15.80
2018-05-06T19:41:33.246Z,15.60
2018-05-06T19:44:36.823Z,15.40
2018-05-06T19:47:40.103Z,15.20
2018-05-06T19:50:44.468Z,15.00
2018-05-06T19:53:49.222Z,14.80
2018-05-06T19:56:53.675Z,14.70
2018-05-06T19:59:59.242Z,14.60
2018-05-06T20:03:03.362Z,14.50
2018-05-06T20:06:06.583Z,14.40
2018-05-06T20:09:09.825Z,14.20
2018-05-06T20:12:14.545Z,14.10
2018-05-06T20:15:18.492Z,14.00
2018-05-06T20:18:21.979Z,13.90
2018-05-06T20:21:26.128Z,13.70
2018-05-06T20:24:30.116Z,13.60
2018-05-06T20:27:34.905Z,13.50
2018-05-06T20:30:40.407Z,13.40
2018-05-06T20:33:44.021Z,13.40
2018-05-06T20:36:47.339Z,13.30
2018-05-06T20:39:50.673Z,13.50
2018-05-06T20:42:53.869Z,13.50
2018-05-06T20:46:01.492Z,13.50
2018-05-06T20:49:11.448Z,13.10
2018-05-06T20:52:15.020Z,13.10
2018-05-06T20:55:18.390Z,12.90
2018-05-06T20:58:21.638Z,12.70
2018-05-06T21:01:24.933Z,12.50
2018-05-06T21:04:28.815Z,12.40
2018-05-06T21:07:33.308Z,12.20
2018-05-06T21:10:36.552Z,12.20
2018-05-06T21:13:41.730Z,12.10
2018-05-06T21:16:44.992Z,12.00
2018-05-06T21:19:48.234Z,11.70
2018-05-06T21:22:51.401Z,11.60
2018-05-06T21:25:54.601Z,11.50
2018-05-06T21:29:00.628Z,11.40
2018-05-06T21:32:03.947Z,11.30
2018-05-06T21:35:08.640Z,11.00
2018-05-06T21:38:11.923Z,11.00
2018-05-06T21:41:15.112Z,11.00
2018-05-06T21:44:19.254Z,10.90
2018-05-06T21:47:22.558Z,10.90
2018-05-06T21:50:27.829Z,11.00
2018-05-06T21:53:32.870Z,11.00
2018-05-06T21:56:36.072Z,10.90
2018-05-06T21:59:39.335Z,10.80
2018-05-06T22:02:42.563Z,11.00
2018-05-06T22:05:46.191Z,10.90
2018-05-06T22:08:49.359Z,10.60
2018-05-06T22:11:52.840Z,10.60
2018-05-06T22:14:57.889Z,10.40
2018-05-06T22:18:03.279Z,10.30
2018-05-06T22:21:06.507Z,10.30
2018-05-06T22:24:12.426Z,10.10
2018-05-06T22:27:16.857Z,10.10
2018-05-06T22:30:20.046Z,10.00
2018-05-06T22:33:23.242Z,10.00
2018-05-06T22:36:27.296Z,9.80
2018-05-06T22:39:30.616Z,9.80
2018-05-06T22:42:34.285Z,9.70
2018-05-06T22:45:38.884Z,9.60
2018-05-06T22:48:42.064Z,9.60
2018-05-06T22:51:46.348Z,9.40
2018-05-06T22:54:49.658Z,9.40
2018-05-06T22:57:53.954Z,9.30
2018-05-06T23:00:57.157Z,9.30
2018-05-06T23:04:05.307Z,9.60
2018-05-06T23:07:11.289Z,9.60
2018-05-06T23:10:14.681Z,9.60
2018-05-06T23:13:17.922Z,9.60
2018-05-06T23:16:21.141Z,9.60
2018-05-06T23:19:24.317Z,9.30
2018-05-06T23:22:33.505Z,9.20
2018-05-06T23:25:37.547Z,9.20
2018-05-06T23:28:41.645Z,9.20
2018-05-06T23:31:45.155Z,9.20
2018-05-06T23:34:49.068Z,9.00
2018-05-06T23:37:53.021Z,8.80
2018-05-06T23:40:57.621Z,8.80
2018-05-06T23:44:01.106Z,8.80
2018-05-06T23:47:04.788Z,8.80
2018-05-06T23:50:09.352Z,8.60
2018-05-06T23:53:13.291Z,8.50
2018-05-06T23:56:16.528Z,8.50
2018-05-06T23:59:19.667Z,8.50
